Temp: 4.7°C   Baro: 1017.2mb
  Wind: 0.0mph   Dir: NNW (342°)
  Rain: 0.0mm (0.0mm/hr)
  Solar: 0W/m2  Hum: 83%

Historic data

Bath Spa Weather Station Historical Data
Daily Summary for July 12, 2021 Units:  Metric    English   Both
Daily Weekly Monthly Yearly Custom
  High: Low: Average:
Temperature: 13.7 °C 8.6 °C 11.8 °C
Dew Point: 11.9 °C 7.5 °C 10.5 °C
Humidity: 93% 82% 89%
Wind Speed: 20.8km/h 2.1km/h 10.3km/h
Wind Gust: 40.2km/h - -
Wind- - WSW
Pressure: 1017.5 hPa 1008.7 hPa -
Precipitation: 2.54 mm    
Historical Graphs
 
 
Tabular Data for July 12, 2021
Time Temperature Dew Point Pressure Wind Wind Speed Wind Gust Humidity Rainfall Rate (Hourly) solar
00:04 8.6 °C 7.5 °C 1017.5 hPa SSW 2.1 km/h 4.8 km/h 90% 0 mm 0 W/m2
00:09 8.6 °C 7.5 °C 1017.5 hPa SSW 4.5 km/h 9.7 km/h 90% 0 mm 0 W/m2
00:14 8.7 °C 7.6 °C 1017.2 hPa SSW 3.1 km/h 9.7 km/h 90% 0 mm 0 W/m2
00:19 8.9 °C 7.8 °C 1016.8 hPa SSW 7.2 km/h 16.1 km/h 90% 0 mm 0 W/m2
00:24 9.2 °C 8.1 °C 1016.8 hPa SSW 7.1 km/h 14.5 km/h 90% 0 mm 0 W/m2
00:29 9.3 °C 8.3 °C 1016.8 hPa SSW 6.9 km/h 17.7 km/h 90% 0 mm 0 W/m2
00:34 9.6 °C 8.4 °C 1016.8 hPa South 7.1 km/h 19.3 km/h 89.4% 0 mm 0 W/m2
00:39 9.7 °C 8.4 °C 1016.8 hPa South 11.6 km/h 22.5 km/h 89% 0 mm 0 W/m2
00:44 9.7 °C 8.4 °C 1016.8 hPa South 7.7 km/h 16.1 km/h 88.6% 0 mm 0 W/m2
00:49 9.7 °C 8.3 °C 1016.5 hPa South 9.2 km/h 20.9 km/h 88% 0 mm 0 W/m2
00:54 9.8 °C 8.4 °C 1016.5 hPa South 11.1 km/h 16.1 km/h 88% 0 mm 0 W/m2
00:59 9.8 °C 8.4 °C 1016.5 hPa South 11.3 km/h 20.9 km/h 87.8% 0 mm 0 W/m2
01:04 9.9 °C 8.3 °C 1016.1 hPa South 9.5 km/h 20.9 km/h 87% 0 mm 0 W/m2
01:09 9.8 °C 8.3 °C 1016.1 hPa South 10.9 km/h 16.1 km/h 87% 0 mm 0 W/m2
01:14 9.9 °C 8.3 °C 1016.1 hPa South 11.9 km/h 24.1 km/h 87% 0 mm 0 W/m2
01:19 9.9 °C 8.3 °C 1015.8 hPa South 10.8 km/h 24.1 km/h 87% 0 mm 0 W/m2
01:24 9.9 °C 8.3 °C 1016.1 hPa South 9.5 km/h 16.1 km/h 87% 0 mm 0 W/m2
01:29 10 °C 8.4 °C 1016.1 hPa South 6.6 km/h 11.3 km/h 87% 0 mm 0 W/m2
01:34 9.9 °C 8.3 °C 1016.1 hPa South 7.4 km/h 17.7 km/h 87% 0 mm 0 W/m2
01:39 9.9 °C 8.3 °C 1015.8 hPa South 7.9 km/h 12.9 km/h 87% 0 mm 0 W/m2
01:44 9.8 °C 8.2 °C 1015.8 hPa South 7.7 km/h 12.9 km/h 87% 0 mm 0 W/m2
01:49 9.8 °C 8.2 °C 1015.5 hPa South 4.3 km/h 11.3 km/h 87% 0 mm 0 W/m2
01:54 9.9 °C 8.3 °C 1015.8 hPa South 4.8 km/h 11.3 km/h 87% 0 mm 0 W/m2
01:59 9.9 °C 8.3 °C 1015.5 hPa South 4.7 km/h 8 km/h 87% 0 mm 0 W/m2
02:04 9.9 °C 8.3 °C 1015.5 hPa South 4.8 km/h 11.3 km/h 87% 0 mm 0 W/m2
02:09 10.1 °C 8.4 °C 1015.1 hPa South 3.9 km/h 9.7 km/h 87% 0 mm 0 W/m2
02:14 10.1 °C 8.5 °C 1015.1 hPa South 3.1 km/h 11.3 km/h 87% 0 mm 0 W/m2
02:19 10.2 °C 8.6 °C 1015.1 hPa South 2.6 km/h 4.8 km/h 87% 0 mm 0 W/m2
02:24 10.2 °C 8.6 °C 1015.1 hPa South 4 km/h 9.7 km/h 87% 0 mm 0 W/m2
02:29 10.3 °C 8.7 °C 1015.1 hPa South 4 km/h 6.4 km/h 87% 0 mm 0 W/m2
02:34 10.3 °C 8.7 °C 1014.8 hPa South 3.2 km/h 9.7 km/h 87% 0 mm 0 W/m2
02:39 10.3 °C 8.7 °C 1014.8 hPa South 4 km/h 6.4 km/h 87% 0 mm 0 W/m2
02:44 10.4 °C 8.8 °C 1014.4 hPa South 2.7 km/h 8 km/h 87% 0 mm 0 W/m2
02:49 10.7 °C 9.1 °C 1014.4 hPa South 11.9 km/h 19.3 km/h 87% 0 mm 0 W/m2
02:54 10.9 °C 9.3 °C 1014.4 hPa SSW 9.7 km/h 19.3 km/h 86.8% 0 mm 0 W/m2
02:59 11.1 °C 9.3 °C 1014.1 hPa SSW 6.1 km/h 12.9 km/h 86% 0 mm 0 W/m2
03:04 11.1 °C 9.3 °C 1014.1 hPa SSW 8.2 km/h 16.1 km/h 86% 0 mm 0 W/m2
03:09 11.1 °C 9.2 °C 1014.1 hPa SSW 6 km/h 11.3 km/h 85.4% 0 mm 0 W/m2
03:14 11.1 °C 9.2 °C 1014.1 hPa SSW 5.1 km/h 11.3 km/h 85% 0 mm 0 W/m2
03:19 11.1 °C 9.3 °C 1014.1 hPa SSW 4.2 km/h 8 km/h 85.6% 0 mm 0 W/m2
03:24 11.1 °C 9.3 °C 1014.1 hPa SSW 5.1 km/h 12.9 km/h 86% 0 mm 0 W/m2
03:29 11.1 °C 9.3 °C 1013.8 hPa SSW 5.3 km/h 11.3 km/h 86% 0 mm 0 W/m2
03:34 11.1 °C 9.3 °C 1013.8 hPa SSW 4.5 km/h 12.9 km/h 86% 0 mm 0 W/m2
03:39 11.1 °C 9.3 °C 1013.4 hPa SSW 5.1 km/h 11.3 km/h 86% 0 mm 0 W/m2
03:44 11.2 °C 9.4 °C 1013.4 hPa SSW 7.1 km/h 12.9 km/h 86% 0 mm 0 W/m2
03:48 11.2 °C 9.4 °C 1013.4 hPa SSW 9.2 km/h 14.5 km/h 86% 0 mm 0 W/m2
03:54 11.3 °C 9.6 °C 1013.1 hPa South 13.2 km/h 30.6 km/h 86.2% 0 mm 0 W/m2
03:59 11.4 °C 9.7 °C 1012.8 hPa SSE 9.8 km/h 30.6 km/h 86.2% 0 mm 0 W/m2
04:04 11.4 °C 9.7 °C 1012.8 hPa SSE 5.8 km/h 12.9 km/h 86% 0 mm 0 W/m2
04:09 11.4 °C 9.8 °C 1012.8 hPa SSE 4.3 km/h 11.3 km/h 87% 0 mm 0 W/m2
04:14 11.4 °C 9.7 °C 1012.8 hPa SSE 5.3 km/h 11.3 km/h 86.8% 0 mm 0 W/m2
04:19 11.4 °C 9.8 °C 1012.8 hPa SSE 4.3 km/h 14.5 km/h 87% 0 mm 0 W/m2
04:24 11.4 °C 9.8 °C 1012.8 hPa SSE 4 km/h 8 km/h 87% 0 mm 0 W/m2
04:29 11.4 °C 9.8 °C 1012.8 hPa SSE 6.9 km/h 12.9 km/h 87% 0 mm 0 W/m2
04:34 11.4 °C 9.8 °C 1012.8 hPa SSE 4.3 km/h 12.9 km/h 87% 0 mm 0 W/m2
04:39 11.6 °C 10.1 °C 1012.8 hPa South 4.5 km/h 14.5 km/h 87.6% 0 mm 0 W/m2
04:44 11.7 °C 10.3 °C 1012.8 hPa SW 5.8 km/h 19.3 km/h 88% 0 mm 0 W/m2
04:49 11.8 °C 10.4 °C 1012.8 hPa SW 7.9 km/h 16.1 km/h 88% 0 mm 0 W/m2
04:54 11.9 °C 10.5 °C 1012.8 hPa SW 5.1 km/h 25.7 km/h 88% 0 mm 0 W/m2
04:59 11.9 °C 10.6 °C 1012.4 hPa SW 8.7 km/h 25.7 km/h 88.4% 0 mm 0 W/m2
05:04 12.1 °C 10.8 °C 1012.4 hPa SW 9.3 km/h 19.3 km/h 89% 0 mm 0 W/m2
05:09 12.1 °C 10.8 °C 1012.4 hPa SSW 17.4 km/h 29 km/h 89% 0 mm 0 W/m2
05:14 12.1 °C 10.8 °C 1012.4 hPa SSW 8.4 km/h 22.5 km/h 89% 0 mm 0 W/m2
05:19 12.1 °C 10.9 °C 1012.4 hPa SW 12.6 km/h 24.1 km/h 89.4% 0 mm 0 W/m2
05:24 12.1 °C 11 °C 1012.4 hPa SSW 9.5 km/h 24.1 km/h 90% 0 mm 0 W/m2
05:29 11.9 °C 10.9 °C 1012.1 hPa SSW 12.6 km/h 25.7 km/h 90.2% 0.25 mm 0 W/m2
05:34 11.9 °C 11 °C 1012.1 hPa SW 12.9 km/h 29 km/h 91% 0.25 mm 0 W/m2
05:39 11.8 °C 10.9 °C 1012.1 hPa SW 11.6 km/h 29 km/h 91% 0.51 mm 0 W/m2
05:44 11.8 °C 10.9 °C 1011.7 hPa SW 9 km/h 22.5 km/h 91.6% 0.51 mm 0 W/m2
05:49 11.8 °C 11.1 °C 1011.7 hPa SW 10 km/h 20.9 km/h 92% 0.51 mm 0 W/m2
05:54 11.9 °C 11.1 °C 1011.7 hPa SSW 9.8 km/h 17.7 km/h 92% 0.51 mm 0 W/m2
05:59 11.9 °C 11.1 °C 1011.7 hPa SSW 10.6 km/h 19.3 km/h 92% 0.51 mm 0 W/m2
06:04 11.9 °C 11.2 °C 1011.7 hPa SW 10.5 km/h 24.1 km/h 92.3% 0.51 mm 0 W/m2
06:09 12 °C 11.3 °C 1011.7 hPa SW 10 km/h 24.1 km/h 92.8% 0.51 mm 0 W/m2
06:14 12.1 °C 11.3 °C 1011.7 hPa SSW 7.7 km/h 22.5 km/h 92.2% 0.76 mm 0 W/m2
06:18 12.1 °C 11.5 °C 1011.7 hPa SSW 9.7 km/h 19.3 km/h 93% 0.76 mm 0 W/m2
06:24 12.1 °C 11.5 °C 1011.4 hPa SW 8.4 km/h 22.5 km/h 93% 0.76 mm 0 W/m2
06:29 12.2 °C 11.6 °C 1011.4 hPa SW 10.1 km/h 24.1 km/h 93% 0.76 mm 0 W/m2
06:34 12.2 °C 11.7 °C 1011.7 hPa SW 14.5 km/h 24.1 km/h 93% 0.51 mm 0 W/m2
06:39 12.3 °C 11.7 °C 1011.4 hPa SW 10.1 km/h 22.5 km/h 93% 0.51 mm 0 W/m2
06:44 12.4 °C 11.8 °C 1011.4 hPa SW 9.2 km/h 17.7 km/h 93% 0.51 mm 0 W/m2
06:49 12.4 °C 11.8 °C 1011.7 hPa WSW 10.1 km/h 19.3 km/h 93% 0.51 mm 0 W/m2
06:54 12.4 °C 11.8 °C 1011.4 hPa SW 10.6 km/h 19.3 km/h 93% 0.25 mm 0 W/m2
06:59 12.5 °C 11.9 °C 1011.4 hPa SW 12.2 km/h 22.5 km/h 93% 0.25 mm 0 W/m2
07:04 12.5 °C 11.9 °C 1011.7 hPa WSW 10.6 km/h 24.1 km/h 93% 0.25 mm 0 W/m2
07:09 12.5 °C 11.9 °C 1011.7 hPa SW 10.3 km/h 17.7 km/h 93% 0.25 mm 0 W/m2
07:14 12.5 °C 11.9 °C 1011.7 hPa WSW 11.7 km/h 17.7 km/h 93% 0.25 mm 0 W/m2
07:19 12.4 °C 11.8 °C 1011.4 hPa West 4.5 km/h 19.3 km/h 93% 0.51 mm 0 W/m2
07:24 12.3 °C 11.7 °C 1011.4 hPa West 9.7 km/h 25.7 km/h 93% 0.51 mm 0 W/m2
07:29 12.2 °C 11.6 °C 1011.7 hPa West 11.6 km/h 29 km/h 93% 0.76 mm 0 W/m2
07:34 12.1 °C 11.5 °C 1011.1 hPa SW 9.8 km/h 22.5 km/h 93% 0.76 mm 0 W/m2
07:39 12.1 °C 11.5 °C 1011.1 hPa WSW 8.9 km/h 22.5 km/h 93% 0.76 mm 0 W/m2
07:44 12.2 °C 11.6 °C 1011.1 hPa West 6.8 km/h 12.9 km/h 93% 0.76 mm 5 W/m2
07:49 12.1 °C 11.4 °C 1011.1 hPa West 8.9 km/h 22.5 km/h 92.8% 0.76 mm 7 W/m2
07:54 12.1 °C 11.3 °C 1011.1 hPa WSW 7.4 km/h 17.7 km/h 92% 0.76 mm 12 W/m2
07:59 12.1 °C 11.3 °C 1011.1 hPa WSW 6.6 km/h 16.1 km/h 92% 0.76 mm 18 W/m2
08:04 12.1 °C 11.3 °C 1011.4 hPa West 12.9 km/h 22.5 km/h 91.8% 0.76 mm 14 W/m2
08:09 12.1 °C 11.2 °C 1011.4 hPa West 6.6 km/h 17.7 km/h 91% 0.76 mm 11 W/m2
08:14 12.1 °C 11.2 °C 1011.4 hPa West 10.8 km/h 17.7 km/h 91% 0.76 mm 12 W/m2
08:19 12.1 °C 11.2 °C 1011.7 hPa West 12.1 km/h 20.9 km/h 90.5% 0.76 mm 14 W/m2
08:24 12.2 °C 11.1 °C 1011.4 hPa West 10.9 km/h 20.9 km/h 90% 0.51 mm 35 W/m2
08:29 12.2 °C 10.9 °C 1011.4 hPa West 9.3 km/h 19.3 km/h 89.4% 0.25 mm 37 W/m2
08:34 12 °C 10.7 °C 1011.4 hPa West 10.9 km/h 24.1 km/h 89% 0 mm 23 W/m2
08:39 11.8 °C 10.4 °C 1011.4 hPa West 13.2 km/h 22.5 km/h 88% 0 mm 23 W/m2
08:44 11.8 °C 10.3 °C 1011.4 hPa West 10.8 km/h 19.3 km/h 88% 0 mm 42 W/m2
08:49 11.7 °C 10.2 °C 1011.4 hPa West 11.9 km/h 29 km/h 87.8% 0 mm 42 W/m2
08:54 11.8 °C 10.2 °C 1011.4 hPa WSW 11.6 km/h 27.4 km/h 87% 0 mm 46 W/m2
08:59 11.8 °C 10.2 °C 1011.4 hPa WSW 15.8 km/h 40.2 km/h 87% 0 mm 42 W/m2
09:04 11.8 °C 10.2 °C 1011.1 hPa WSW 16.1 km/h 25.7 km/h 87% 0 mm 54 W/m2
09:09 11.9 °C 10.1 °C 1011.1 hPa WSW 8.2 km/h 29 km/h 86.2% 0 mm 76 W/m2
09:14 11.9 °C 10.1 °C 1010.7 hPa WSW 11.6 km/h 29 km/h 86% 0 mm 95 W/m2
09:19 12.1 °C 10.3 °C 1010.7 hPa WSW 13.2 km/h 20.9 km/h 86% 0 mm 130 W/m2
09:24 12.3 °C 10.3 °C 1010.7 hPa SW 11.3 km/h 20.9 km/h 85.2% 0 mm 107 W/m2
09:29 12.5 °C 10.6 °C 1010.4 hPa SW 7.7 km/h 22.5 km/h 85.4% 0 mm 114 W/m2
09:34 12.6 °C 10.8 °C 1010.4 hPa SW 9.3 km/h 19.3 km/h 86% 0 mm 123 W/m2
09:39 12.6 °C 10.8 °C 1010.4 hPa SW 9.7 km/h 20.9 km/h 86.2% 0 mm 134 W/m2
09:44 12.6 °C 10.8 °C 1010.7 hPa SW 10.5 km/h 20.9 km/h 86% 0 mm 142 W/m2
09:49 12.7 °C 11 °C 1010.4 hPa SW 8.4 km/h 11.3 km/h 86.2% 0 mm 160 W/m2
09:54 12.8 °C 11 °C 1010.4 hPa WSW 12.1 km/h 20.9 km/h 86% 0 mm 185 W/m2
09:59 12.7 °C 10.8 °C 1010.4 hPa WSW 10.8 km/h 22.5 km/h 85.4% 0 mm 128 W/m2
10:04 12.8 °C 10.8 °C 1010.4 hPa WSW 13.2 km/h 24.1 km/h 85% 0 mm 134 W/m2
10:09 12.8 °C 10.7 °C 1010.4 hPa WSW 10.9 km/h 20.9 km/h 84% 0 mm 292 W/m2
10:13 12.9 °C 10.8 °C 1010.4 hPa WSW 11.3 km/h 24.1 km/h 83.8% 0 mm 151 W/m2
10:19 13.1 °C 10.8 °C 1010.4 hPa WSW 10.6 km/h 24.1 km/h 83% 0 mm 214 W/m2
10:24 13.2 °C 10.9 °C 1010.4 hPa SW 13.2 km/h 22.5 km/h 83% 0 mm 158 W/m2
10:29 13.2 °C 10.8 °C 1010.4 hPa West 14.8 km/h 27.4 km/h 82.2% 0 mm 121 W/m2
10:34 13.2 °C 10.8 °C 1010.4 hPa West 12.9 km/h 27.4 km/h 82.2% 0 mm 162 W/m2
10:39 13.3 °C 10.9 °C 1010.4 hPa WSW 12.4 km/h 25.7 km/h 82.6% 0 mm 125 W/m2
10:44 13.3 °C 11 °C 1010.4 hPa WSW 11.6 km/h 20.9 km/h 83% 0 mm 95 W/m2
10:49 13.3 °C 11 °C 1010.4 hPa WSW 10.6 km/h 20.9 km/h 83% 0 mm 155 W/m2
10:54 13.4 °C 11.1 °C 1010.4 hPa SW 14.5 km/h 25.7 km/h 83% 0 mm 232 W/m2
10:59 13.6 °C 11.1 °C 1010.4 hPa WSW 13.7 km/h 20.9 km/h 82.4% 0 mm 267 W/m2
11:04 13.7 °C 11.2 °C 1010.4 hPa SW 15.4 km/h 27.4 km/h 82% 0 mm 211 W/m2
11:09 13.7 °C 11.2 °C 1010 hPa WSW 20.8 km/h 30.6 km/h 82% 0 mm 137 W/m2
11:14 13.6 °C 11.1 °C 1010 hPa SW 20.3 km/h 30.6 km/h 82% 0 mm 118 W/m2
11:19 13.6 °C 11.1 °C 1010.4 hPa WSW 17.4 km/h 27.4 km/h 82% 0 mm 167 W/m2
11:24 13.5 °C 11 °C 1010 hPa WSW 12.6 km/h 30.6 km/h 82% 0 mm 178 W/m2
11:29 13.5 °C 11.1 °C 1010.4 hPa WSW 8.7 km/h 20.9 km/h 82.4% 0 mm 139 W/m2
11:34 13.3 °C 10.8 °C 1010.4 hPa WSW 17.1 km/h 27.4 km/h 82% 0 mm 144 W/m2
11:39 13.2 °C 10.8 °C 1010.4 hPa WSW 15.9 km/h 27.4 km/h 82.4% 0 mm 107 W/m2
11:44 13.2 °C 10.7 °C 1010 hPa WSW 12.6 km/h 22.5 km/h 82.2% 0 mm 120 W/m2
11:49 13.2 °C 10.7 °C 1010 hPa West 14.2 km/h 25.7 km/h 82% 0 mm 114 W/m2
11:54 13.2 °C 10.7 °C 1010 hPa WSW 10.6 km/h 24.1 km/h 82% 0 mm 109 W/m2
11:59 13.2 °C 10.7 °C 1010 hPa WSW 11.3 km/h 25.7 km/h 82% 0 mm 125 W/m2
12:04 13.2 °C 10.7 °C 1010 hPa WSW 12.2 km/h 20.9 km/h 82% 0 mm 132 W/m2
12:09 13.2 °C 10.7 °C 1009.7 hPa WSW 13.7 km/h 24.1 km/h 82% 0 mm 132 W/m2
12:14 13.2 °C 10.7 °C 1009.7 hPa WSW 14.2 km/h 24.1 km/h 82% 0 mm 179 W/m2
12:19 13.2 °C 10.7 °C 1009.7 hPa WSW 15.3 km/h 30.6 km/h 82% 0 mm 69 W/m2
12:24 13.2 °C 10.8 °C 1009.7 hPa WSW 13.2 km/h 19.3 km/h 82.2% 0 mm 60 W/m2
12:29 13.1 °C 10.8 °C 1009.7 hPa West 9.8 km/h 17.7 km/h 83.2% 0 mm 42 W/m2
12:34 12.8 °C 10.7 °C 1009.7 hPa West 11.3 km/h 17.7 km/h 84.2% 0 mm 77 W/m2
12:39 12.6 °C 10.7 °C 1009.7 hPa WNW 13.2 km/h 19.3 km/h 85.3% 0 mm 40 W/m2
12:44 12.3 °C 10.6 °C 1009.7 hPa West 7.6 km/h 20.9 km/h 86.2% 0.25 mm 53 W/m2
12:49 12.2 °C 10.7 °C 1009.7 hPa West 7.9 km/h 17.7 km/h 87.2% 0.25 mm 77 W/m2
12:54 12.1 °C 10.7 °C 1009.7 hPa West 6.4 km/h 17.7 km/h 88% 0.25 mm 118 W/m2
12:59 12.1 °C 10.7 °C 1009.7 hPa West 6.8 km/h 17.7 km/h 88.4% 0.51 mm 102 W/m2
13:04 12 °C 10.7 °C 1009.4 hPa West 6 km/h 12.9 km/h 89% 0.51 mm 83 W/m2
13:09 12.1 °C 10.8 °C 1009.4 hPa West 7.1 km/h 12.9 km/h 89% 0.51 mm 83 W/m2
13:14 12.1 °C 11 °C 1009 hPa WNW 3.2 km/h 12.9 km/h 90% 0.51 mm 74 W/m2
13:19 12.1 °C 11 °C 1009 hPa WNW 4.3 km/h 8 km/h 90% 0.51 mm 63 W/m2
13:24 12.1 °C 10.9 °C 1009 hPa WNW 5.3 km/h 11.3 km/h 90% 0.51 mm 51 W/m2
13:29 12.1 °C 11 °C 1009 hPa WNW 7.9 km/h 12.9 km/h 90% 0.51 mm 33 W/m2
13:34 11.9 °C 10.8 °C 1009 hPa WNW 5.1 km/h 12.9 km/h 90.2% 0.51 mm 69 W/m2
13:39 11.9 °C 11 °C 1009 hPa WNW 10.9 km/h 19.3 km/h 91% 0.51 mm 116 W/m2
13:44 11.9 °C 11 °C 1009.4 hPa West 10.6 km/h 19.3 km/h 91% 0.51 mm 105 W/m2
13:49 11.9 °C 11 °C 1009.4 hPa West 12.2 km/h 22.5 km/h 91% 0.51 mm 56 W/m2
13:54 11.8 °C 10.9 °C 1009.4 hPa West 15.8 km/h 25.7 km/h 91% 0.51 mm 69 W/m2
13:59 11.8 °C 10.9 °C 1009.4 hPa West 11.3 km/h 25.7 km/h 90.6% 0.51 mm 91 W/m2
14:04 11.9 °C 10.8 °C 1009.4 hPa WSW 7.6 km/h 16.1 km/h 90% 0.25 mm 100 W/m2
14:09 11.9 °C 10.8 °C 1009.4 hPa West 4.8 km/h 17.7 km/h 90% 0.25 mm 111 W/m2
14:14 12.1 °C 10.9 °C 1009.4 hPa West 12.6 km/h 25.7 km/h 90% 0.25 mm 113 W/m2
14:19 12.1 °C 11 °C 1009.4 hPa West 10.3 km/h 25.7 km/h 90% 0.25 mm 81 W/m2
14:24 12.1 °C 10.9 °C 1009.4 hPa WSW 10.3 km/h 17.7 km/h 89.5% 0.25 mm 102 W/m2
14:29 12.1 °C 10.8 °C 1009 hPa WSW 11.9 km/h 17.7 km/h 89% 0.25 mm 179 W/m2
14:34 12.3 °C 10.9 °C 1009 hPa WSW 16.1 km/h 22.5 km/h 88.2% 0 mm 151 W/m2
14:39 12.3 °C 10.8 °C 1009 hPa West 11.9 km/h 20.9 km/h 87.4% 0 mm 102 W/m2
14:44 12.4 °C 10.8 °C 1009 hPa West 12.2 km/h 20.9 km/h 87% 0 mm 69 W/m2
14:49 12.3 °C 10.8 °C 1009 hPa West 12.2 km/h 27.4 km/h 87% 0 mm 40 W/m2
14:54 12.4 °C 10.7 °C 1009 hPa West 12.6 km/h 25.7 km/h 86.8% 0 mm 37 W/m2
14:59 12.3 °C 10.5 °C 1009 hPa West 16.1 km/h 24.1 km/h 86% 0 mm 35 W/m2
15:04 12.3 °C 10.6 °C 1009 hPa West 15.1 km/h 24.1 km/h 86% 0 mm 35 W/m2
15:09 12.4 °C 10.6 °C 1009 hPa West 16.7 km/h 25.7 km/h 86% 0 mm 39 W/m2
15:14 12.4 °C 10.6 °C 1009 hPa WNW 14.5 km/h 25.7 km/h 86% 0 mm 25 W/m2
15:19 12.4 °C 10.6 °C 1009 hPa West 15.9 km/h 25.7 km/h 86% 0 mm 25 W/m2
15:24 12.4 °C 10.6 °C 1009 hPa WSW 14.5 km/h 25.7 km/h 86% 0 mm 23 W/m2
15:29 12.4 °C 10.6 °C 1009 hPa West 13.2 km/h 32.2 km/h 86% 0 mm 21 W/m2
15:34 12.3 °C 10.6 °C 1009 hPa West 14.2 km/h 25.7 km/h 86.4% 0 mm 33 W/m2
15:39 12.3 °C 10.7 °C 1009 hPa West 12.2 km/h 27.4 km/h 87% 0 mm 30 W/m2
15:44 12.3 °C 10.7 °C 1009 hPa West 13.8 km/h 20.9 km/h 87% 0 mm 14 W/m2
15:49 12.3 °C 10.7 °C 1009 hPa West 11.7 km/h 25.7 km/h 87% 0 mm 23 W/m2
15:54 12.4 °C 10.7 °C 1009 hPa West 11.9 km/h 17.7 km/h 86.8% 0 mm 19 W/m2
15:59 12.3 °C 10.6 °C 1009 hPa West 8.2 km/h 20.9 km/h 86% 0 mm 7 W/m2
16:04 12.4 °C 10.6 °C 1009 hPa WNW 14.8 km/h 29 km/h 86% 0 mm 5 W/m2
16:09 12.4 °C 10.6 °C 1009 hPa West 16.4 km/h 29 km/h 86% 0 mm 0 W/m2
16:14 12.3 °C 10.6 °C 1009 hPa West 17.1 km/h 35.4 km/h 86.4% 0 mm 0 W/m2
16:19 12.3 °C 10.7 °C 1009 hPa West 19.6 km/h 33.8 km/h 87% 0 mm 0 W/m2
16:24 12.2 °C 10.6 °C 1009 hPa WNW 18 km/h 30.6 km/h 87% 0 mm 0 W/m2
16:29 12.1 °C 10.7 °C 1009 hPa West 16.7 km/h 30.6 km/h 88% 0 mm 0 W/m2
16:34 11.9 °C 10.6 °C 1009 hPa West 12.9 km/h 32.2 km/h 88.3% 0 mm 0 W/m2
16:39 11.8 °C 10.6 °C 1009 hPa WNW 19.6 km/h 32.2 km/h 89% 0 mm 0 W/m2
16:44 11.8 °C 10.7 °C 1008.7 hPa West 14.8 km/h 27.4 km/h 89.8% 0 mm 0 W/m2
16:49 11.8 °C 10.7 °C 1009 hPa West 12.2 km/h 22.5 km/h 90% 0 mm 0 W/m2
16:54 11.9 °C 10.8 °C 1009 hPa West 11.3 km/h 24.1 km/h 90% 0 mm 0 W/m2
16:59 11.9 °C 10.8 °C 1009 hPa WNW 16.7 km/h 22.5 km/h 90% 0 mm 0 W/m2
17:04 11.8 °C 10.9 °C 1009 hPa WNW 14.8 km/h 29 km/h 90.8% 0 mm 0 W/m2
17:09 11.9 °C 11 °C 1009 hPa WNW 15.9 km/h 25.7 km/h 91% 0 mm 0 W/m2
17:14 11.8 °C 10.9 °C 1009 hPa WNW 13.8 km/h 29 km/h 91% 0 mm 0 W/m2
17:19 11.8 °C 10.9 °C 1009 hPa West 13.8 km/h 24.1 km/h 91% 0 mm 0 W/m2
17:24 11.8 °C 10.9 °C 1009 hPa West 12.9 km/h 29 km/h 91.2% 0 mm 0 W/m2
17:29 11.8 °C 10.9 °C 1009 hPa West 14.2 km/h 29 km/h 91.4% 0 mm 0 W/m2
17:34 11.9 °C 11.1 °C 1009 hPa West 15.1 km/h 25.7 km/h 92% 0 mm 0 W/m2
17:39 11.9 °C 11.1 °C 1009 hPa WNW 9.5 km/h 24.1 km/h 92% 0 mm 0 W/m2
17:44 11.9 °C 11.1 °C 1009 hPa West 12.7 km/h 24.1 km/h 91.6% 0 mm 0 W/m2
17:49 11.9 °C 11.1 °C 1009.4 hPa West 9.3 km/h 29 km/h 91.4% 0.25 mm 0 W/m2
17:54 11.8 °C 11 °C 1009.4 hPa West 9.2 km/h 22.5 km/h 91.8% 0.25 mm 0 W/m2
17:59 11.8 °C 11 °C 1009.4 hPa West 16.1 km/h 25.7 km/h 92% 0.25 mm 0 W/m2
18:04 11.8 °C 11 °C 1009.4 hPa WNW 14.5 km/h 27.4 km/h 92% 0.25 mm 0 W/m2
18:09 11.8 °C 11 °C 1009.4 hPa WNW 14.2 km/h 25.7 km/h 92% 0.25 mm 0 W/m2
18:14 11.8 °C 11 °C 1009.7 hPa WNW 12.9 km/h 20.9 km/h 92% 0.25 mm 0 W/m2
18:19 11.8 °C 11 °C 1009.7 hPa WNW 9.8 km/h 25.7 km/h 92% 0.51 mm 0 W/m2
18:24 11.8 °C 11.2 °C 1009.7 hPa WNW 8.7 km/h 22.5 km/h 93% 0.51 mm 0 W/m2
18:29 11.8 °C 11.2 °C 1009.7 hPa West 7.7 km/h 22.5 km/h 93% 0.51 mm 0 W/m2
18:34 11.8 °C 11.2 °C 1009.7 hPa West 9.2 km/h 14.5 km/h 93% 0.51 mm 0 W/m2
18:39 11.8 °C 11.2 °C 1009.7 hPa West 9.7 km/h 20.9 km/h 93% 0.51 mm 0 W/m2
18:44 11.9 °C 11.3 °C 1009.7 hPa West 11.6 km/h 25.7 km/h 93% 0.51 mm 0 W/m2
18:49 11.9 °C 11.3 °C 1009.7 hPa West 11.6 km/h 27.4 km/h 93% 0.51 mm 0 W/m2
18:54 11.9 °C 11.3 °C 1009.7 hPa West 14.6 km/h 27.4 km/h 93% 0.25 mm 0 W/m2
18:59 11.9 °C 11.3 °C 1009.7 hPa West 12.6 km/h 29 km/h 93% 0.25 mm 0 W/m2
19:04 11.9 °C 11.3 °C 1009.7 hPa WNW 15.4 km/h 25.7 km/h 93% 0.25 mm 0 W/m2
19:09 11.9 °C 11.2 °C 1010 hPa WNW 14.2 km/h 25.7 km/h 92.8% 0.25 mm 0 W/m2
19:14 12.1 °C 11.3 °C 1010 hPa West 15.8 km/h 25.7 km/h 92.6% 0.25 mm 0 W/m2
19:19 12.1 °C 11.3 °C 1010 hPa WNW 13.8 km/h 27.4 km/h 92% 0.25 mm 0 W/m2
19:24 12.1 °C 11.3 °C 1010 hPa West 11.9 km/h 29 km/h 92% 0 mm 0 W/m2
19:29 12.2 °C 11.3 °C 1010 hPa West 14.2 km/h 29 km/h 91.8% 0 mm 0 W/m2
19:34 12.2 °C 11.3 °C 1010 hPa WNW 13.8 km/h 25.7 km/h 91% 0 mm 0 W/m2
19:39 12.2 °C 11.3 °C 1010 hPa WNW 14.5 km/h 25.7 km/h 91% 0 mm 0 W/m2
19:44 12.2 °C 11.3 °C 1010 hPa WNW 13.2 km/h 25.7 km/h 91% 0 mm 0 W/m2
19:49 12.2 °C 11.3 °C 1010 hPa WNW 12.7 km/h 27.4 km/h 91% 0 mm 0 W/m2
19:54 12.2 °C 11.3 °C 1010 hPa West 9 km/h 19.3 km/h 91% 0 mm 0 W/m2
19:59 12.2 °C 11.3 °C 1010 hPa West 14.8 km/h 27.4 km/h 91% 0 mm 0 W/m2
20:04 12.2 °C 11.2 °C 1010 hPa WNW 12.9 km/h 22.5 km/h 90.4% 0 mm 0 W/m2
20:09 12.1 °C 11 °C 1010.4 hPa WNW 14.5 km/h 25.7 km/h 90% 0 mm 0 W/m2
20:14 12 °C 10.9 °C 1010.4 hPa West 12.1 km/h 25.7 km/h 90% 0 mm 0 W/m2
20:19 11.9 °C 10.8 °C 1010.4 hPa WNW 12.9 km/h 24.1 km/h 90% 0 mm 0 W/m2
20:24 11.9 °C 10.8 °C 1010.4 hPa WNW 10.6 km/h 19.3 km/h 90% 0 mm 0 W/m2
20:29 11.9 °C 10.9 °C 1010.4 hPa WNW 14.2 km/h 20.9 km/h 90.4% 0 mm 0 W/m2
20:34 11.9 °C 11 °C 1010.4 hPa WNW 13.2 km/h 19.3 km/h 91% 0 mm 0 W/m2
20:39 11.9 °C 11 °C 1010.4 hPa WNW 13.8 km/h 22.5 km/h 91% 0 mm 0 W/m2
20:44 11.9 °C 11 °C 1010.4 hPa WNW 12.9 km/h 20.9 km/h 91% 0 mm 0 W/m2
20:49 11.9 °C 11 °C 1010.4 hPa WNW 12.9 km/h 20.9 km/h 91% 0 mm 0 W/m2
20:54 11.9 °C 11 °C 1010.7 hPa WNW 9.8 km/h 20.9 km/h 91% 0 mm 0 W/m2
20:59 11.8 °C 10.9 °C 1010.7 hPa West 7.1 km/h 14.5 km/h 91% 0 mm 0 W/m2
21:04 11.8 °C 10.9 °C 1010.7 hPa WNW 6.4 km/h 16.1 km/h 91% 0 mm 0 W/m2
21:09 11.8 °C 10.9 °C 1010.7 hPa WNW 5.5 km/h 16.1 km/h 91% 0 mm 0 W/m2
21:14 11.8 °C 10.9 °C 1010.7 hPa WNW 11.6 km/h 17.7 km/h 91% 0 mm 0 W/m2
21:19 11.9 °C 11 °C 1010.7 hPa WNW 8.7 km/h 22.5 km/h 91% 0 mm 0 W/m2
21:24 11.9 °C 10.9 °C 1010.7 hPa WNW 9.2 km/h 16.1 km/h 90.6% 0 mm 0 W/m2
21:29 11.9 °C 10.8 °C 1010.7 hPa WNW 9.7 km/h 19.3 km/h 90.2% 0 mm 0 W/m2
21:34 11.9 °C 10.8 °C 1010.7 hPa WNW 10.1 km/h 16.1 km/h 90% 0 mm 0 W/m2
21:39 11.9 °C 10.8 °C 1011.1 hPa WNW 7.7 km/h 17.7 km/h 90% 0 mm 0 W/m2
21:44 11.9 °C 10.8 °C 1011.1 hPa WNW 12.7 km/h 20.9 km/h 90% 0 mm 0 W/m2
21:49 11.9 °C 10.8 °C 1011.1 hPa WNW 10.3 km/h 25.7 km/h 90% 0 mm 0 W/m2
21:54 11.8 °C 10.7 °C 1011.1 hPa WNW 10.1 km/h 25.7 km/h 90% 0 mm 0 W/m2
21:59 11.8 °C 10.7 °C 1011.1 hPa WNW 12.9 km/h 19.3 km/h 90% 0 mm 0 W/m2
22:04 11.8 °C 10.7 °C 1011.1 hPa West 6.8 km/h 16.1 km/h 90% 0 mm 0 W/m2
22:09 11.7 °C 10.6 °C 1011.1 hPa West 4.3 km/h 8 km/h 90% 0 mm 0 W/m2
22:14 11.7 °C 10.6 °C 1011.4 hPa West 5.1 km/h 11.3 km/h 90% 0 mm 0 W/m2
22:19 11.7 °C 10.6 °C 1011.4 hPa WNW 6.1 km/h 14.5 km/h 90% 0 mm 0 W/m2
22:24 11.6 °C 10.5 °C 1011.4 hPa WNW 7.2 km/h 14.5 km/h 90% 0 mm 0 W/m2
22:29 11.6 °C 10.5 °C 1011.1 hPa WNW 9 km/h 20.9 km/h 90% 0 mm 0 W/m2
22:34 11.7 °C 10.6 °C 1011.1 hPa WNW 6 km/h 14.5 km/h 90% 0 mm 0 W/m2
22:39 11.7 °C 10.6 °C 1011.4 hPa WNW 6.8 km/h 16.1 km/h 90% 0 mm 0 W/m2
22:44 11.7 °C 10.6 °C 1011.4 hPa WNW 5.1 km/h 16.1 km/h 90% 0 mm 0 W/m2
22:49 11.7 °C 10.6 °C 1011.4 hPa WNW 9.2 km/h 14.5 km/h 90% 0 mm 0 W/m2
22:54 11.7 °C 10.6 °C 1011.4 hPa WNW 7.9 km/h 12.9 km/h 90% 0 mm 0 W/m2
22:59 11.7 °C 10.6 °C 1011.4 hPa WNW 6.3 km/h 14.5 km/h 90% 0 mm 0 W/m2
23:04 11.7 °C 10.6 °C 1011.7 hPa WNW 6.1 km/h 17.7 km/h 90% 0 mm 0 W/m2
23:09 11.7 °C 10.6 °C 1011.7 hPa WNW 7.6 km/h 17.7 km/h 90% 0 mm 0 W/m2
23:14 11.7 °C 10.6 °C 1011.7 hPa West 9 km/h 19.3 km/h 90% 0 mm 0 W/m2
23:19 11.7 °C 10.6 °C 1011.7 hPa West 9.2 km/h 16.1 km/h 90% 0 mm 0 W/m2
23:24 11.7 °C 10.6 °C 1011.7 hPa West 8.4 km/h 12.9 km/h 90% 0 mm 0 W/m2
23:29 11.6 °C 10.5 °C 1011.7 hPa West 9 km/h 14.5 km/h 90% 0 mm 0 W/m2
23:34 11.6 °C 10.5 °C 1011.7 hPa West 7.4 km/h 12.9 km/h 90% 0 mm 0 W/m2
23:38 11.6 °C 10.4 °C 1011.7 hPa WNW 10.5 km/h 16.1 km/h 89.8% 0 mm 0 W/m2
23:44 11.5 °C 10.3 °C 1012.1 hPa WNW 9.5 km/h 17.7 km/h 89.4% 0 mm 0 W/m2
23:49 11.4 °C 10.2 °C 1012.1 hPa WNW 7.9 km/h 16.1 km/h 89% 0 mm 0 W/m2
23:54 11.4 °C 10.1 °C 1012.1 hPa WNW 8.5 km/h 17.7 km/h 89% 0 mm 0 W/m2
23:59 11.4 °C 10.1 °C 1012.1 hPa WNW 9.8 km/h 17.7 km/h 89% 0 mm 0 W/m2
Bath Spa Weather
Compliments of Weather Underground - 2 mb